Terminal Aerodrome Forecast
Issued by NWS

Home | Current Version | Previous Version | Text Only | Print | Product List | Glossary On
Versions: 1 2 3 4 5 6 7 8 9 10 11 12 13 14 15
458
FTPA31 PHFO 272325
TAFHOG
TAF
PHOG 272325Z 2800/2824 04014G23KT P6SM VCSH FEW025 SCT035 BKN060
     FM280500 05008KT P6SM FEW030 BKN060
     FM282100 04014G23KT P6SM FEW030 BKN060
      AMD LTD TO VIS AND WIND 2809/2816=

USA.gov is the U.S. government's official web portal to all federal, state and local government web resources and services.